createdAt,value
2023-02-15T00:01:37.281Z,58.52
2023-02-15T00:04:07.873Z,58.09
2023-02-15T00:06:38.217Z,58.20
2023-02-15T00:09:08.379Z,58.17
2023-02-15T00:11:46.059Z,58.03
2023-02-15T00:14:18.696Z,57.98
2023-02-15T00:16:53.242Z,57.89
2023-02-15T00:19:24.275Z,58.03
2023-02-15T00:21:54.663Z,57.89
2023-02-15T00:24:24.802Z,58.07
2023-02-15T00:26:54.918Z,57.93
2023-02-15T00:29:25.272Z,57.88
2023-02-15T00:31:57.840Z,57.66
2023-02-15T00:34:29.708Z,57.90
2023-02-15T00:37:00.686Z,57.85
2023-02-15T00:39:31.001Z,57.71
2023-02-15T00:42:01.052Z,57.68
2023-02-15T00:44:31.211Z,57.86
2023-02-15T00:47:03.823Z,57.90
2023-02-15T00:49:34.016Z,58.00
2023-02-15T00:52:04.132Z,57.97
2023-02-15T00:54:35.613Z,58.12
2023-02-15T00:57:05.782Z,58.00
2023-02-15T00:59:35.736Z,57.99
2023-02-15T01:02:08.389Z,58.03
2023-02-15T01:04:38.373Z,57.97
2023-02-15T01:07:08.533Z,57.55
2023-02-15T01:09:38.473Z,57.69
2023-02-15T01:12:09.901Z,57.81
2023-02-15T01:14:40.035Z,57.97
2023-02-15T01:17:12.662Z,57.61
2023-02-15T01:19:42.574Z,57.54
2023-02-15T01:22:12.682Z,57.83
2023-02-15T01:24:43.474Z,58.20
2023-02-15T01:27:13.839Z,58.33
2023-02-15T01:29:43.912Z,58.37
2023-02-15T01:32:16.610Z,58.66
2023-02-15T01:34:46.914Z,58.92
2023-02-15T01:37:17.082Z,59.07
2023-02-15T01:39:47.378Z,59.22
2023-02-15T01:42:17.440Z,58.98
2023-02-15T01:44:54.130Z,59.12
2023-02-15T01:47:31.064Z,59.03
2023-02-15T01:50:07.348Z,59.29
2023-02-15T01:52:47.898Z,59.19
2023-02-15T01:55:18.491Z,59.17
2023-02-15T01:57:50.021Z,59.24
2023-02-15T02:00:22.700Z,59.22
2023-02-15T02:02:58.989Z,59.56
2023-02-15T02:05:29.645Z,59.71
2023-02-15T02:08:02.229Z,59.64
2023-02-15T02:10:32.986Z,59.53
2023-02-15T02:13:06.336Z,59.51
2023-02-15T02:15:44.630Z,59.58
2023-02-15T02:18:34.134Z,59.59
2023-02-15T02:21:34.098Z,59.52
2023-02-15T02:24:27.628Z,59.06
2023-02-15T02:27:24.153Z,59.09
2023-02-15T02:30:40.943Z,59.21
2023-02-15T02:33:31.955Z,59.41
2023-02-15T02:36:12.671Z,59.50
2023-02-15T02:38:52.649Z,59.63
2023-02-15T02:41:31.847Z,59.34
2023-02-15T02:44:11.508Z,59.25
2023-02-15T02:46:49.321Z,58.90
2023-02-15T02:49:33.728Z,59.03
2023-02-15T02:52:05.311Z,59.15
2023-02-15T02:54:39.450Z,59.29
2023-02-15T02:57:13.032Z,59.52
2023-02-15T02:59:49.574Z,59.71
2023-02-15T03:02:25.551Z,59.79
2023-02-15T03:05:04.969Z,59.80
2023-02-15T03:07:37.567Z,59.83
2023-02-15T03:10:11.631Z,59.88
2023-02-15T03:12:44.573Z,59.81
2023-02-15T03:15:20.765Z,60.10
2023-02-15T03:17:57.108Z,60.03
2023-02-15T03:20:34.420Z,60.01
2023-02-15T03:23:10.105Z,60.22
2023-02-15T03:25:47.176Z,60.25
2023-02-15T03:28:22.314Z,60.25
2023-02-15T03:31:00.643Z,59.91
2023-02-15T03:33:32.667Z,59.80
2023-02-15T03:36:12.449Z,59.82
2023-02-15T03:38:48.780Z,59.78
2023-02-15T03:41:23.225Z,59.98
2023-02-15T03:43:58.400Z,60.32
2023-02-15T03:46:34.082Z,60.57
2023-02-15T03:49:09.770Z,60.64
2023-02-15T03:51:46.553Z,60.58
2023-02-15T03:54:39.455Z,60.87
2023-02-15T03:57:25.469Z,61.19
2023-02-15T04:00:08.007Z,61.04
2023-02-15T04:02:48.295Z,61.17
2023-02-15T04:05:18.352Z,61.21
2023-02-15T04:07:51.212Z,61.27
2023-02-15T04:10:33.835Z,60.93
2023-02-15T04:13:03.840Z,60.95
2023-02-15T04:15:46.223Z,61.13
2023-02-15T04:18:16.313Z,61.04
2023-02-15T04:21:00.377Z,60.91
2023-02-15T04:23:45.538Z,61.01
2023-02-15T04:26:15.611Z,60.89
2023-02-15T04:28:45.628Z,61.05
2023-02-15T04:31:15.675Z,60.81
2023-02-15T04:33:45.721Z,60.79
2023-02-15T04:36:15.678Z,61.01
2023-02-15T04:38:48.214Z,61.20
2023-02-15T04:41:18.161Z,61.21
2023-02-15T04:43:48.268Z,61.06
2023-02-15T04:46:18.238Z,61.22
2023-02-15T04:48:48.212Z,61.44
2023-02-15T04:51:18.081Z,61.35
2023-02-15T04:53:50.690Z,61.46
2023-02-15T04:56:20.585Z,61.69
2023-02-15T04:58:50.642Z,61.45
2023-02-15T05:01:24.823Z,61.48
2023-02-15T05:03:54.845Z,61.44
2023-02-15T05:06:24.999Z,61.39
2023-02-15T05:09:00.098Z,61.79
2023-02-15T05:11:30.078Z,61.59
2023-02-15T05:14:00.097Z,61.62
2023-02-15T05:16:30.687Z,61.83
2023-02-15T05:19:00.748Z,61.74
2023-02-15T05:21:30.888Z,61.67
2023-02-15T05:24:23.547Z,61.73
2023-02-15T05:27:05.971Z,61.68
2023-02-15T05:29:36.017Z,61.91
2023-02-15T05:32:06.335Z,62.02
2023-02-15T05:34:36.348Z,61.87
2023-02-15T05:37:06.283Z,61.95
2023-02-15T05:39:38.942Z,61.62
2023-02-15T05:42:12.605Z,61.73
2023-02-15T05:44:42.578Z,61.70
2023-02-15T05:47:12.663Z,61.69
2023-02-15T05:49:42.601Z,61.75
2023-02-15T05:52:13.235Z,61.51
2023-02-15T05:54:45.808Z,62.16
2023-02-15T05:57:15.705Z,62.41
2023-02-15T05:59:48.995Z,62.61
2023-02-15T06:02:18.943Z,62.69
2023-02-15T06:04:48.973Z,62.63
2023-02-15T06:07:18.886Z,62.52
2023-02-15T06:09:51.436Z,62.61
2023-02-15T06:12:22.168Z,62.53
2023-02-15T06:15:19.706Z,62.82
2023-02-15T06:17:49.800Z,62.54
2023-02-15T06:20:19.969Z,62.69
2023-02-15T06:22:50.465Z,62.56
2023-02-15T06:25:23.433Z,62.86
2023-02-15T06:27:53.320Z,63.03
2023-02-15T06:30:23.808Z,63.38
2023-02-15T06:32:53.846Z,64.00
2023-02-15T06:35:23.796Z,63.91
2023-02-15T06:37:53.844Z,64.05
2023-02-15T06:40:26.427Z,64.80
2023-02-15T06:42:56.341Z,65.15
2023-02-15T06:45:26.345Z,65.10
2023-02-15T06:47:56.312Z,65.04
2023-02-15T06:50:26.474Z,64.97
2023-02-15T06:53:00.529Z,64.16
2023-02-15T06:55:33.062Z,64.48
2023-02-15T06:58:03.036Z,63.76
2023-02-15T07:00:36.406Z,64.14
2023-02-15T07:03:06.517Z,63.96
2023-02-15T07:05:37.881Z,64.66
2023-02-15T07:08:08.981Z,64.96
2023-02-15T07:10:41.569Z,64.97
2023-02-15T07:13:08.947Z,64.20
2023-02-15T07:15:38.849Z,64.01
2023-02-15T07:18:10.102Z,63.34
2023-02-15T07:20:42.711Z,62.82
2023-02-15T07:23:12.749Z,63.53
2023-02-15T07:25:45.283Z,64.06
2023-02-15T07:28:16.961Z,63.40
2023-02-15T07:30:48.322Z,63.47
2023-02-15T07:33:28.184Z,63.42
2023-02-15T07:36:00.647Z,63.49
2023-02-15T07:38:33.975Z,63.20
2023-02-15T07:41:08.760Z,63.82
2023-02-15T07:43:41.474Z,63.74
2023-02-15T07:46:13.297Z,63.46
2023-02-15T07:48:44.382Z,63.79
2023-02-15T07:51:16.928Z,63.93
2023-02-15T07:53:48.103Z,63.70
2023-02-15T07:56:20.682Z,63.64
2023-02-15T07:58:56.925Z,63.38
2023-02-15T08:01:29.847Z,63.03
2023-02-15T08:04:00.789Z,63.06
2023-02-15T08:06:33.144Z,63.21
2023-02-15T08:09:03.924Z,62.37
2023-02-15T08:11:40.706Z,62.67
2023-02-15T08:14:12.326Z,62.93
2023-02-15T08:16:43.535Z,63.06
2023-02-15T08:19:15.137Z,63.27
2023-02-15T08:21:48.003Z,62.76
2023-02-15T08:24:20.697Z,62.70
2023-02-15T08:26:54.204Z,62.23
2023-02-15T08:29:26.202Z,61.91
2023-02-15T08:31:59.786Z,61.33
2023-02-15T08:34:29.868Z,61.87
2023-02-15T08:37:00.124Z,62.74
2023-02-15T08:39:30.403Z,62.97
2023-02-15T08:42:03.129Z,63.01
2023-02-15T08:44:33.098Z,62.67
2023-02-15T08:47:04.888Z,62.51
2023-02-15T08:49:35.694Z,63.05
2023-02-15T08:52:05.653Z,62.94
2023-02-15T08:54:35.634Z,63.64
2023-02-15T08:57:11.705Z,63.48
2023-02-15T08:59:41.790Z,63.25
2023-02-15T09:02:14.225Z,63.37
2023-02-15T09:04:44.189Z,63.84
2023-02-15T09:07:14.183Z,63.33
2023-02-15T09:09:44.247Z,63.67
2023-02-15T09:12:16.961Z,63.33
2023-02-15T09:14:46.943Z,62.83
2023-02-15T09:17:16.872Z,62.33
2023-02-15T09:19:48.985Z,62.77
2023-02-15T09:22:18.911Z,62.91
2023-02-15T09:24:49.070Z,63.03
2023-02-15T09:27:21.592Z,63.08
2023-02-15T09:29:51.528Z,62.86
2023-02-15T09:32:21.611Z,62.27
2023-02-15T09:34:53.961Z,61.84
2023-02-15T09:37:23.967Z,61.76
2023-02-15T09:39:55.158Z,61.60
2023-02-15T09:42:59.954Z,61.79
2023-02-15T09:45:49.870Z,61.35
2023-02-15T09:48:42.298Z,61.76
2023-02-15T09:51:50.718Z,62.47
2023-02-15T09:54:49.914Z,62.75
2023-02-15T09:57:31.068Z,61.97
2023-02-15T10:00:12.640Z,61.89
2023-02-15T10:03:00.588Z,61.82
2023-02-15T10:05:43.061Z,61.29
2023-02-15T10:08:44.512Z,61.51
2023-02-15T10:11:32.120Z,61.33
2023-02-15T10:14:16.584Z,61.49
2023-02-15T10:16:59.824Z,61.46
2023-02-15T10:19:38.516Z,60.39
2023-02-15T10:22:23.277Z,60.49
2023-02-15T10:25:16.565Z,60.43
2023-02-15T10:27:50.244Z,60.15
2023-02-15T10:30:32.205Z,59.86
2023-02-15T10:33:09.737Z,59.91
2023-02-15T10:35:47.700Z,59.78
2023-02-15T10:38:28.316Z,59.86
2023-02-15T10:41:12.009Z,59.62
2023-02-15T10:44:09.629Z,58.59
2023-02-15T10:46:59.937Z,59.11
2023-02-15T10:49:52.842Z,59.33
2023-02-15T10:52:33.752Z,59.46
2023-02-15T10:55:13.569Z,58.76
2023-02-15T10:57:55.470Z,58.00
2023-02-15T11:00:32.322Z,57.51
2023-02-15T11:03:24.945Z,57.24
2023-02-15T11:06:07.104Z,57.24
2023-02-15T11:08:42.272Z,57.58
2023-02-15T11:11:16.042Z,57.17
2023-02-15T11:13:50.762Z,54.77
2023-02-15T11:16:25.266Z,53.83
2023-02-15T11:18:59.802Z,51.93
2023-02-15T11:21:37.928Z,47.47
2023-02-15T11:24:15.201Z,43.16
2023-02-15T11:26:47.825Z,38.49
2023-02-15T11:29:25.573Z,38.37
2023-02-15T11:32:04.029Z,36.39
2023-02-15T11:34:40.991Z,34.12
2023-02-15T11:37:19.783Z,31.98
2023-02-15T11:39:52.624Z,31.51
2023-02-15T11:42:27.720Z,30.35
2023-02-15T11:45:07.169Z,29.54
2023-02-15T11:47:37.414Z,28.87
2023-02-15T11:50:08.445Z,27.56
2023-02-15T11:52:41.064Z,27.28
2023-02-15T11:55:18.049Z,27.15
2023-02-15T11:57:53.741Z,25.82
2023-02-15T12:00:32.413Z,25.86
2023-02-15T12:03:02.879Z,24.41
2023-02-15T12:05:35.419Z,25.04
2023-02-15T12:08:18.840Z,24.77
2023-02-15T12:11:01.985Z,23.61
2023-02-15T12:13:32.403Z,22.60
2023-02-15T12:16:11.479Z,22.77
2023-02-15T12:18:48.142Z,22.49
2023-02-15T12:21:27.737Z,21.99
2023-02-15T12:24:07.166Z,20.75
2023-02-15T12:26:39.494Z,21.77
2023-02-15T12:29:18.919Z,21.19
2023-02-15T12:31:50.263Z,20.71
2023-02-15T12:34:26.191Z,20.50
2023-02-15T12:36:59.939Z,19.89
2023-02-15T12:39:33.965Z,20.40
2023-02-15T12:42:06.989Z,19.65
2023-02-15T12:44:38.972Z,19.73
2023-02-15T12:47:21.247Z,19.67
2023-02-15T12:50:17.878Z,19.95
2023-02-15T12:52:52.376Z,21.24
2023-02-15T12:55:28.339Z,22.91
2023-02-15T12:58:11.950Z,24.99
2023-02-15T13:00:42.056Z,25.68
2023-02-15T13:03:21.405Z,26.24
2023-02-15T13:05:55.777Z,25.38
2023-02-15T13:08:32.289Z,25.71
2023-02-15T13:11:10.805Z,26.46
2023-02-15T13:13:55.253Z,27.48
2023-02-15T13:16:32.094Z,27.17
2023-02-15T13:19:07.902Z,26.60
2023-02-15T13:21:42.497Z,25.65
2023-02-15T13:24:22.802Z,23.83
2023-02-15T13:27:09.305Z,23.79
2023-02-15T13:29:47.856Z,25.03
2023-02-15T13:32:29.894Z,25.32
2023-02-15T13:35:02.205Z,26.62
2023-02-15T13:37:52.372Z,29.05
2023-02-15T13:40:28.487Z,31.20
2023-02-15T13:43:06.994Z,32.70
2023-02-15T13:45:45.416Z,32.86
2023-02-15T13:48:31.466Z,32.89
2023-02-15T13:51:16.691Z,32.62
2023-02-15T13:54:22.799Z,31.60
2023-02-15T13:57:07.895Z,30.45
2023-02-15T13:59:57.567Z,32.17
2023-02-15T14:02:50.476Z,34.23
2023-02-15T14:05:37.983Z,34.47
2023-02-15T14:08:18.194Z,34.91
2023-02-15T14:10:59.203Z,34.96
2023-02-15T14:13:57.495Z,34.68
2023-02-15T14:16:40.404Z,32.51
2023-02-15T14:19:26.718Z,30.99
2023-02-15T14:22:06.355Z,29.95
2023-02-15T14:24:47.468Z,31.06
2023-02-15T14:27:27.865Z,32.73
2023-02-15T14:30:03.277Z,33.69
2023-02-15T14:32:44.321Z,34.76
2023-02-15T14:35:17.960Z,34.28
2023-02-15T14:37:54.947Z,32.67
2023-02-15T14:40:52.001Z,31.68
2023-02-15T14:43:31.897Z,31.97
2023-02-15T14:46:07.483Z,31.67
2023-02-15T14:48:45.558Z,31.39
2023-02-15T14:51:57.947Z,31.26
2023-02-15T14:54:59.858Z,30.49
2023-02-15T14:57:37.316Z,30.59
2023-02-15T15:00:43.088Z,30.81
2023-02-15T15:03:25.409Z,30.51
2023-02-15T15:06:03.238Z,30.58
2023-02-15T15:08:38.927Z,30.82
2023-02-15T15:11:43.741Z,32.43
2023-02-15T15:14:30.450Z,33.77
2023-02-15T15:17:01.011Z,35.10
2023-02-15T15:20:08.451Z,36.49
2023-02-15T15:22:41.211Z,37.95
2023-02-15T15:25:36.462Z,39.14
2023-02-15T15:28:06.741Z,39.57
2023-02-15T15:30:55.724Z,39.49
2023-02-15T15:33:55.856Z,40.07
2023-02-15T15:36:53.855Z,40.54
2023-02-15T15:40:02.450Z,40.30
2023-02-15T15:42:45.294Z,40.04
2023-02-15T15:46:20.172Z,39.66
2023-02-15T15:48:50.356Z,39.10
2023-02-15T15:51:24.163Z,39.46
2023-02-15T15:53:55.876Z,40.30
2023-02-15T15:56:33.487Z,41.16
2023-02-15T15:59:06.536Z,41.78
2023-02-15T16:01:43.610Z,42.22
2023-02-15T16:04:16.555Z,42.74
2023-02-15T16:06:46.918Z,43.45
2023-02-15T16:09:21.477Z,43.60
2023-02-15T16:11:59.527Z,43.96
2023-02-15T16:14:34.138Z,44.20
2023-02-15T16:17:06.321Z,44.56
2023-02-15T16:19:43.306Z,44.79
2023-02-15T16:22:19.863Z,44.99
2023-02-15T16:25:12.819Z,45.01
2023-02-15T16:27:47.098Z,45.22
2023-02-15T16:30:24.425Z,45.56
2023-02-15T16:32:58.446Z,45.61
2023-02-15T16:35:28.419Z,45.89
2023-02-15T16:37:58.460Z,46.24
2023-02-15T16:40:53.217Z,46.74
2023-02-15T16:43:30.752Z,47.37
2023-02-15T16:46:09.659Z,47.63
2023-02-15T16:48:47.853Z,47.65
2023-02-15T16:51:25.345Z,47.77
2023-02-15T16:53:57.863Z,47.64
2023-02-15T16:56:31.371Z,47.38
2023-02-15T16:59:05.654Z,47.15
2023-02-15T17:01:36.724Z,47.46
2023-02-15T17:04:17.598Z,47.53
2023-02-15T17:07:02.190Z,48.08
2023-02-15T17:09:35.535Z,48.23
2023-02-15T17:12:05.822Z,48.34
2023-02-15T17:14:44.061Z,48.49
2023-02-15T17:17:22.697Z,48.43
2023-02-15T17:19:56.031Z,48.35
2023-02-15T17:22:31.651Z,48.29
2023-02-15T17:25:07.313Z,48.66
2023-02-15T17:27:39.542Z,48.94
2023-02-15T17:30:21.088Z,49.10
2023-02-15T17:32:57.386Z,49.74
2023-02-15T17:35:28.642Z,49.65
2023-02-15T17:38:10.199Z,50.19
2023-02-15T17:40:40.622Z,50.24
2023-02-15T17:43:10.699Z,50.04
2023-02-15T17:45:50.661Z,50.14
2023-02-15T17:48:25.390Z,50.07
2023-02-15T17:50:56.646Z,49.84
2023-02-15T17:53:28.373Z,50.35
2023-02-15T17:55:56.276Z,50.59
2023-02-15T17:58:26.182Z,50.95
2023-02-15T18:01:13.795Z,51.35
2023-02-15T18:04:03.759Z,50.86
2023-02-15T18:06:46.820Z,50.58
2023-02-15T18:09:31.013Z,50.67
2023-02-15T18:12:01.662Z,50.90
2023-02-15T18:14:31.914Z,50.81
2023-02-15T18:17:04.631Z,51.12
2023-02-15T18:19:39.534Z,51.19
2023-02-15T18:22:13.929Z,51.23
2023-02-15T18:24:44.355Z,51.61
2023-02-15T18:27:15.405Z,51.31
2023-02-15T18:29:46.007Z,51.42
2023-02-15T18:32:21.612Z,51.75
2023-02-15T18:34:52.521Z,51.71
2023-02-15T18:37:24.486Z,51.63
2023-02-15T18:39:55.875Z,51.50
2023-02-15T18:42:27.898Z,51.89
2023-02-15T18:45:02.649Z,52.11
2023-02-15T18:47:36.560Z,51.66
2023-02-15T18:50:07.385Z,51.79
2023-02-15T18:52:40.383Z,51.84
2023-02-15T18:55:20.564Z,51.83
2023-02-15T18:57:53.359Z,52.02
2023-02-15T19:00:29.716Z,52.12
2023-02-15T19:03:04.427Z,52.07
2023-02-15T19:05:36.197Z,52.34
2023-02-15T19:08:06.796Z,52.34
2023-02-15T19:10:37.104Z,52.52
2023-02-15T19:13:07.367Z,52.40
2023-02-15T19:15:38.815Z,52.49
2023-02-15T19:18:11.529Z,52.68
2023-02-15T19:20:43.783Z,52.71
2023-02-15T19:23:20.222Z,52.83
2023-02-15T19:25:50.775Z,52.65
2023-02-15T19:28:24.210Z,52.71
2023-02-15T19:30:54.381Z,52.68
2023-02-15T19:33:27.127Z,52.84
2023-02-15T19:35:59.149Z,52.83
2023-02-15T19:38:36.626Z,53.21
2023-02-15T19:41:10.400Z,53.49
2023-02-15T19:43:40.820Z,53.44
2023-02-15T19:46:20.153Z,53.72
2023-02-15T19:48:53.903Z,53.51
2023-02-15T19:51:26.551Z,53.40
2023-02-15T19:53:57.788Z,53.33
2023-02-15T19:56:28.016Z,53.39
2023-02-15T19:58:58.724Z,53.60
2023-02-15T20:01:28.926Z,53.96
2023-02-15T20:04:01.668Z,54.55
2023-02-15T20:06:31.709Z,54.40
2023-02-15T20:09:02.352Z,54.35
2023-02-15T20:11:32.373Z,54.22
2023-02-15T20:14:02.453Z,54.34
2023-02-15T20:53:00.385Z,55.87
2023-02-15T20:55:32.445Z,55.88
2023-02-15T20:58:05.236Z,55.23
2023-02-15T21:00:35.324Z,55.13
2023-02-15T21:03:05.275Z,54.81
2023-02-15T21:05:35.913Z,54.99
2023-02-15T21:08:15.000Z,55.38
2023-02-15T21:10:45.804Z,55.39
2023-02-15T21:13:23.946Z,55.43
2023-02-15T21:15:55.973Z,55.43
2023-02-15T21:18:28.261Z,55.03
2023-02-15T21:21:00.359Z,55.06
2023-02-15T21:23:37.296Z,55.28
2023-02-15T21:26:08.885Z,55.41
2023-02-15T21:28:40.384Z,55.75
2023-02-15T21:31:19.442Z,56.55
2023-02-15T21:33:49.429Z,56.61
2023-02-15T21:36:21.791Z,56.65
2023-02-15T21:38:55.279Z,57.28
2023-02-15T21:41:39.472Z,57.18
2023-02-15T21:44:31.270Z,56.97
2023-02-15T21:47:13.611Z,56.96
2023-02-15T21:49:43.574Z,57.53
2023-02-15T21:52:12.898Z,57.86
2023-02-15T21:55:00.280Z,58.05
2023-02-15T21:57:30.744Z,58.43
2023-02-15T22:00:00.650Z,58.72
2023-02-15T22:02:33.027Z,58.70
2023-02-15T22:05:03.001Z,58.84
2023-02-15T22:07:32.962Z,58.64
2023-02-15T22:10:06.023Z,58.26
2023-02-15T22:12:36.127Z,58.39
2023-02-15T22:15:06.223Z,58.49
2023-02-15T22:17:36.476Z,58.48
2023-02-15T22:20:16.704Z,58.25
2023-02-15T22:22:46.704Z,57.85
2023-02-15T22:25:21.399Z,57.81
2023-02-15T22:27:53.213Z,57.61
2023-02-15T22:30:28.476Z,58.06
2023-02-15T22:33:00.568Z,58.11
2023-02-15T22:35:33.364Z,58.61
2023-02-15T22:38:03.866Z,58.86
2023-02-15T22:40:37.524Z,59.28
2023-02-15T22:43:08.941Z,59.24
2023-02-15T22:45:39.048Z,59.52
2023-02-15T22:48:09.114Z,60.19
2023-02-15T22:50:39.098Z,60.61
2023-02-15T22:53:09.259Z,60.79
2023-02-15T22:55:42.078Z,61.02
2023-02-15T22:58:19.879Z,60.75
2023-02-15T23:00:50.534Z,60.21
2023-02-15T23:03:23.888Z,60.39
2023-02-15T23:05:54.265Z,60.64
2023-02-15T23:08:24.376Z,60.72
2023-02-15T23:10:59.468Z,60.69
2023-02-15T23:13:33.480Z,60.74
2023-02-15T23:16:06.754Z,61.08
2023-02-15T23:18:39.703Z,61.41
2023-02-15T23:21:19.560Z,61.98
2023-02-15T23:23:53.380Z,61.81
2023-02-15T23:26:28.475Z,61.54
2023-02-15T23:29:00.676Z,61.60
2023-02-15T23:31:34.537Z,61.29
2023-02-15T23:34:10.165Z,60.93
2023-02-15T23:36:42.051Z,60.55
2023-02-15T23:39:28.680Z,60.48
2023-02-15T23:42:02.166Z,60.37
2023-02-15T23:44:33.475Z,60.67
2023-02-15T23:47:03.617Z,61.36
2023-02-15T23:49:33.684Z,61.60
2023-02-15T23:52:04.691Z,61.62
2023-02-15T23:54:34.637Z,61.22
2023-02-15T23:57:07.484Z,61.46
2023-02-15T23:59:38.731Z,61.70
